createdAt,value
2018-08-08T00:01:50.423Z,8.50
2018-08-08T00:04:18.948Z,8.40
2018-08-08T00:06:47.446Z,8.33
2018-08-08T00:09:15.931Z,8.40
2018-08-08T00:11:44.459Z,8.13
2018-08-08T00:14:13.098Z,8.87
2018-08-08T00:16:41.678Z,8.97
2018-08-08T00:19:10.251Z,8.53
2018-08-08T00:21:38.718Z,8.73
2018-08-08T00:24:07.274Z,9.03
2018-08-08T00:26:35.752Z,8.50
2018-08-08T00:29:04.313Z,8.30
2018-08-08T00:31:32.802Z,8.80
2018-08-08T00:34:01.275Z,9.13
2018-08-08T00:36:29.783Z,8.33
2018-08-08T00:38:58.306Z,9.07
2018-08-08T00:41:26.828Z,8.63
2018-08-08T00:43:55.320Z,9.50
2018-08-08T00:46:23.813Z,9.10
2018-08-08T00:48:52.471Z,9.40
2018-08-08T00:51:21.015Z,9.67
2018-08-08T00:53:49.520Z,8.50
2018-08-08T00:56:17.994Z,9.70
2018-08-08T00:58:46.514Z,9.90
2018-08-08T01:01:15.018Z,8.80
2018-08-08T01:03:43.518Z,8.80
2018-08-08T01:06:12.079Z,9.30
2018-08-08T01:08:40.635Z,9.57
2018-08-08T01:11:09.183Z,9.57
2018-08-08T01:13:37.728Z,10.13
2018-08-08T01:16:06.418Z,9.67
2018-08-08T01:18:34.926Z,9.37
2018-08-08T01:21:03.537Z,9.80
2018-08-08T01:23:32.117Z,10.03
2018-08-08T01:26:00.627Z,9.97
2018-08-08T01:28:29.134Z,9.73
2018-08-08T01:30:57.643Z,9.47
2018-08-08T01:33:26.248Z,10.00
2018-08-08T01:35:54.766Z,9.80
2018-08-08T01:38:23.567Z,9.90
2018-08-08T01:40:52.154Z,9.77
2018-08-08T01:43:20.682Z,10.37
2018-08-08T01:45:49.317Z,10.83
2018-08-08T01:48:17.667Z,9.80
2018-08-08T01:50:46.199Z,10.73
2018-08-08T01:53:14.715Z,10.37
2018-08-08T01:55:43.207Z,10.50
2018-08-08T01:58:11.803Z,10.20
2018-08-08T02:00:40.284Z,10.40
2018-08-08T02:03:08.807Z,10.17
2018-08-08T02:05:37.351Z,9.97
2018-08-08T02:08:05.851Z,9.97
2018-08-08T02:10:34.326Z,10.13
2018-08-08T02:13:02.823Z,10.40
2018-08-08T02:15:31.319Z,9.83
2018-08-08T02:17:59.819Z,11.17
2018-08-08T02:20:28.394Z,10.77
2018-08-08T02:22:56.907Z,11.17
2018-08-08T02:25:25.479Z,10.67
2018-08-08T02:27:53.939Z,10.13
2018-08-08T02:30:23.240Z,10.90
2018-08-08T02:32:53.059Z,11.10
2018-08-08T02:35:21.996Z,11.50
2018-08-08T02:37:50.671Z,10.37
2018-08-08T02:40:19.283Z,10.90
2018-08-08T02:42:47.849Z,10.63
2018-08-08T02:45:18.188Z,10.87
2018-08-08T02:47:46.797Z,11.60
2018-08-08T02:50:16.742Z,11.33
2018-08-08T02:52:45.298Z,11.50
2018-08-08T02:55:14.178Z,11.23
2018-08-08T02:57:43.059Z,11.50
2018-08-08T03:00:16.887Z,10.63
2018-08-08T03:02:45.757Z,10.73
2018-08-08T03:05:14.308Z,11.57
2018-08-08T03:07:44.258Z,11.77
2018-08-08T03:10:14.459Z,11.17
2018-08-08T03:12:43.072Z,11.60
2018-08-08T03:15:13.517Z,11.33
2018-08-08T03:17:42.060Z,10.47
2018-08-08T03:20:12.120Z,10.87
2018-08-08T03:22:40.719Z,10.97
2018-08-08T03:25:11.291Z,11.10
2018-08-08T03:27:39.867Z,11.00
2018-08-08T03:30:20.910Z,11.23
2018-08-08T03:32:49.530Z,11.23
2018-08-08T03:35:18.634Z,11.63
2018-08-08T03:37:47.275Z,11.73
2018-08-08T03:40:16.724Z,11.27
2018-08-08T03:42:45.659Z,11.30
2018-08-08T03:45:15.543Z,11.73
2018-08-08T03:47:44.051Z,11.63
2018-08-08T03:50:13.099Z,11.87
2018-08-08T03:52:42.843Z,12.23
2018-08-08T03:55:12.103Z,11.47
2018-08-08T03:57:40.861Z,11.20
2018-08-08T04:00:14.970Z,11.27
2018-08-08T04:02:43.633Z,11.87
2018-08-08T04:05:12.257Z,11.73
2018-08-08T04:07:40.889Z,11.20
2018-08-08T04:10:10.263Z,10.73
2018-08-08T04:12:38.833Z,11.27
2018-08-08T04:15:10.351Z,10.73
2018-08-08T04:17:38.846Z,10.23
2018-08-08T04:20:08.162Z,11.43
2018-08-08T04:22:36.810Z,10.70
2018-08-08T04:25:07.166Z,10.43
2018-08-08T04:27:35.734Z,10.73
2018-08-08T04:30:06.661Z,10.80
2018-08-08T04:32:35.215Z,10.63
2018-08-08T04:35:04.124Z,11.10
2018-08-08T04:37:32.682Z,10.50
2018-08-08T04:40:01.178Z,9.83
2018-08-08T04:42:29.690Z,11.20
2018-08-08T04:44:58.199Z,10.80
2018-08-08T04:47:26.716Z,11.33
2018-08-08T04:49:55.296Z,11.20
2018-08-08T04:52:23.837Z,10.83
2018-08-08T04:54:52.405Z,10.57
2018-08-08T04:57:20.942Z,11.27
2018-08-08T04:59:49.527Z,10.87
2018-08-08T05:02:18.058Z,10.50
2018-08-08T05:04:46.808Z,11.30
2018-08-08T05:07:15.375Z,10.67
2018-08-08T05:09:44.508Z,11.00
2018-08-08T05:12:13.130Z,11.60
2018-08-08T05:14:41.681Z,11.30
2018-08-08T05:17:10.194Z,11.80
2018-08-08T05:19:38.811Z,12.50
2018-08-08T05:22:07.352Z,12.10
2018-08-08T05:24:35.898Z,11.47
2018-08-08T05:27:04.522Z,11.60
2018-08-08T05:29:33.027Z,12.00
2018-08-08T05:32:01.701Z,11.73
2018-08-08T05:34:30.256Z,11.83
2018-08-08T05:36:58.750Z,12.27
2018-08-08T05:39:27.288Z,11.50
2018-08-08T05:41:55.874Z,12.57
2018-08-08T05:44:24.427Z,13.23
2018-08-08T05:46:53.004Z,11.37
2018-08-08T05:49:21.584Z,12.77
2018-08-08T05:51:50.082Z,12.77
2018-08-08T05:54:18.643Z,12.20
2018-08-08T05:56:47.239Z,13.47
2018-08-08T05:59:15.758Z,14.07
2018-08-08T06:01:44.303Z,12.87
2018-08-08T06:04:12.898Z,13.97
2018-08-08T06:06:41.557Z,13.53
2018-08-08T06:09:10.123Z,13.43
2018-08-08T06:11:38.703Z,13.60
2018-08-08T06:14:07.782Z,13.97
2018-08-08T06:16:36.723Z,14.23
2018-08-08T06:19:05.375Z,13.70
2018-08-08T06:21:33.919Z,13.77
2018-08-08T06:24:02.475Z,14.40
2018-08-08T06:26:30.995Z,14.83
2018-08-08T06:28:59.510Z,15.20
2018-08-08T06:31:28.050Z,14.57
2018-08-08T06:33:56.634Z,15.17
2018-08-08T06:36:25.174Z,15.07
2018-08-08T06:38:53.683Z,15.13
2018-08-08T06:41:22.181Z,15.30
2018-08-08T06:43:50.769Z,15.07
2018-08-08T06:46:19.238Z,15.13
2018-08-08T06:48:47.782Z,16.83
2018-08-08T06:51:16.294Z,15.20
2018-08-08T06:53:44.845Z,14.97
2018-08-08T06:56:13.408Z,14.83
2018-08-08T06:58:41.909Z,17.20
2018-08-08T07:01:10.403Z,16.70
2018-08-08T07:03:38.933Z,15.47
2018-08-08T07:06:07.449Z,15.33
2018-08-08T07:08:35.945Z,15.23
2018-08-08T07:11:04.541Z,15.73
2018-08-08T07:13:33.032Z,14.97
2018-08-08T07:16:01.527Z,15.67
2018-08-08T07:18:30.147Z,15.67
2018-08-08T07:20:58.671Z,15.53
2018-08-08T07:23:27.179Z,14.93
2018-08-08T07:25:55.768Z,16.17
2018-08-08T07:28:24.299Z,14.40
2018-08-08T07:30:52.823Z,15.43
2018-08-08T07:33:21.380Z,15.17
2018-08-08T07:35:49.971Z,15.47
2018-08-08T07:38:18.491Z,15.33
2018-08-08T07:40:46.963Z,15.50
2018-08-08T07:43:15.529Z,14.93
2018-08-08T07:45:44.152Z,14.70
2018-08-08T07:48:12.623Z,14.27
2018-08-08T07:50:41.142Z,15.83
2018-08-08T07:53:09.660Z,15.47
2018-08-08T07:55:38.170Z,15.63
2018-08-08T07:58:06.826Z,16.00
2018-08-08T08:00:35.312Z,14.90
2018-08-08T08:03:03.860Z,16.05
2018-08-08T08:05:32.386Z,15.50
2018-08-08T08:08:00.935Z,16.20
2018-08-08T08:10:29.421Z,15.38
2018-08-08T08:12:58.093Z,15.85
2018-08-08T08:15:26.597Z,15.05
2018-08-08T08:17:55.103Z,15.68
2018-08-08T08:20:23.651Z,14.73
2018-08-08T08:22:52.485Z,14.93
2018-08-08T08:25:20.965Z,14.78
2018-08-08T08:27:49.506Z,14.55
2018-08-08T08:30:19.259Z,14.45
2018-08-08T08:32:47.906Z,15.13
2018-08-08T08:35:16.515Z,14.43
2018-08-08T08:37:45.118Z,14.20
2018-08-08T08:40:14.149Z,14.23
2018-08-08T08:42:43.345Z,14.25
2018-08-08T08:45:11.971Z,13.93
2018-08-08T08:47:40.517Z,14.20
2018-08-08T08:50:09.441Z,13.78
2018-08-08T08:52:38.098Z,13.20
2018-08-08T08:55:07.062Z,13.43
2018-08-08T08:57:35.963Z,14.23
2018-08-08T09:00:05.944Z,12.98
2018-08-08T09:02:34.493Z,13.15
2018-08-08T09:05:02.976Z,12.60
2018-08-08T09:07:31.515Z,13.43
2018-08-08T09:09:59.941Z,13.43
2018-08-08T09:12:28.502Z,12.90
2018-08-08T09:14:57.007Z,12.63
2018-08-08T09:17:25.510Z,13.08
2018-08-08T09:19:54.003Z,12.40
2018-08-08T09:22:22.475Z,12.25
2018-08-08T09:24:51.283Z,13.65
2018-08-08T09:27:19.798Z,12.28
2018-08-08T09:29:53.616Z,12.37
2018-08-08T09:32:22.142Z,11.97
2018-08-08T09:34:50.636Z,12.47
2018-08-08T09:37:19.112Z,12.10
2018-08-08T09:39:47.598Z,12.18
2018-08-08T09:42:16.103Z,11.63
2018-08-08T09:44:44.578Z,11.90
2018-08-08T09:47:13.169Z,12.15
2018-08-08T09:49:41.690Z,12.00
2018-08-08T09:52:10.274Z,12.15
2018-08-08T09:54:38.798Z,11.68
2018-08-08T09:57:07.314Z,12.07
2018-08-08T09:59:35.881Z,11.93
2018-08-08T10:02:09.841Z,11.73
2018-08-08T10:04:38.414Z,12.58
2018-08-08T10:07:07.666Z,12.28
2018-08-08T10:09:36.562Z,11.97
2018-08-08T10:12:05.106Z,12.33
2018-08-08T10:14:33.605Z,11.48
2018-08-08T10:17:02.108Z,11.43
2018-08-08T10:19:30.618Z,11.57
2018-08-08T10:21:59.117Z,10.98
2018-08-08T10:24:27.606Z,11.60
2018-08-08T10:26:56.162Z,11.03
2018-08-08T10:29:24.622Z,10.58
2018-08-08T10:31:53.132Z,11.55
2018-08-08T10:34:21.683Z,11.00
2018-08-08T10:36:50.171Z,11.48
2018-08-08T10:39:18.661Z,10.82
2018-08-08T10:41:47.199Z,11.05
2018-08-08T10:44:15.652Z,10.85
2018-08-08T10:46:44.186Z,10.85
2018-08-08T10:49:12.730Z,10.15
2018-08-08T10:51:41.256Z,10.35
2018-08-08T10:54:09.741Z,10.25
2018-08-08T10:56:38.280Z,10.80
2018-08-08T10:59:06.780Z,10.48
2018-08-08T11:01:35.258Z,10.45
2018-08-08T11:04:03.783Z,10.75
2018-08-08T11:06:32.288Z,10.03
2018-08-08T11:09:00.829Z,9.85
2018-08-08T11:11:29.303Z,10.48
2018-08-08T11:13:57.807Z,10.90
2018-08-08T11:16:26.362Z,9.85
2018-08-08T11:18:54.877Z,10.00
2018-08-08T11:21:23.393Z,9.43
2018-08-08T11:23:51.943Z,9.73
2018-08-08T11:26:20.465Z,10.15
2018-08-08T11:28:49.047Z,10.15
2018-08-08T11:31:17.603Z,9.98
2018-08-08T11:33:46.431Z,9.58
2018-08-08T11:36:15.076Z,10.00
2018-08-08T11:38:43.806Z,9.85
2018-08-08T11:41:12.584Z,9.70
2018-08-08T11:43:41.275Z,9.85
2018-08-08T11:46:09.807Z,10.40
2018-08-08T11:48:38.481Z,9.68
2018-08-08T11:51:07.239Z,9.13
2018-08-08T11:53:35.814Z,9.35
2018-08-08T11:56:04.590Z,9.28
2018-08-08T11:58:33.427Z,9.73
2018-08-08T12:01:01.980Z,10.13
2018-08-08T12:03:31.232Z,9.25
2018-08-08T12:05:59.772Z,8.58
2018-08-08T12:08:28.232Z,8.85
2018-08-08T12:10:56.783Z,8.90
2018-08-08T12:13:25.303Z,9.40
2018-08-08T12:15:53.824Z,9.40
2018-08-08T12:18:22.426Z,9.98
2018-08-08T12:20:50.940Z,10.20
2018-08-08T12:23:19.456Z,9.85
2018-08-08T12:25:48.048Z,9.63
2018-08-08T12:28:16.560Z,8.80
2018-08-08T12:30:45.084Z,10.63
2018-08-08T12:33:13.642Z,9.53
2018-08-08T12:35:42.229Z,9.05
2018-08-08T12:38:10.784Z,9.25
2018-08-08T12:40:39.337Z,9.18
2018-08-08T12:43:07.829Z,9.55
2018-08-08T12:45:36.346Z,8.38
2018-08-08T12:48:04.887Z,9.10
2018-08-08T12:50:33.381Z,9.53
2018-08-08T12:53:01.912Z,9.48
2018-08-08T12:55:30.423Z,9.70
2018-08-08T12:57:58.931Z,9.50
2018-08-08T13:00:27.449Z,9.83
2018-08-08T13:02:55.995Z,10.05
2018-08-08T13:05:24.580Z,9.88
2018-08-08T13:07:53.110Z,9.78
2018-08-08T13:10:21.690Z,9.75
2018-08-08T13:12:50.222Z,9.58
2018-08-08T13:15:18.734Z,10.28
2018-08-08T13:17:47.412Z,9.70
2018-08-08T13:20:15.902Z,10.30
2018-08-08T13:22:44.403Z,10.10
2018-08-08T13:25:12.935Z,10.70
2018-08-08T13:27:41.433Z,10.15
2018-08-08T13:30:09.935Z,9.95
2018-08-08T13:32:38.501Z,10.03
2018-08-08T13:35:07.375Z,11.08
2018-08-08T13:37:35.883Z,10.00
2018-08-08T13:40:05.387Z,10.80
2018-08-08T13:42:33.929Z,10.30
2018-08-08T13:45:02.480Z,10.60
2018-08-08T13:47:31.036Z,10.65
2018-08-08T13:49:59.598Z,10.60
2018-08-08T13:52:28.119Z,10.10
2018-08-08T13:54:56.709Z,10.30
2018-08-08T13:57:25.218Z,10.85
2018-08-08T13:59:53.790Z,10.00
2018-08-08T14:02:22.656Z,9.93
2018-08-08T14:04:51.231Z,10.25
2018-08-08T14:07:19.799Z,9.80
2018-08-08T14:09:48.399Z,9.18
2018-08-08T14:12:16.952Z,9.63
2018-08-08T14:14:45.484Z,8.80
2018-08-08T14:17:14.333Z,9.25
2018-08-08T14:19:42.854Z,9.33
2018-08-08T14:22:11.356Z,8.68
2018-08-08T14:24:39.897Z,9.40
2018-08-08T14:27:08.461Z,8.65
2018-08-08T14:29:36.978Z,8.78
2018-08-08T14:32:05.588Z,9.00
2018-08-08T14:34:34.202Z,8.80
2018-08-08T14:37:02.727Z,8.80
2018-08-08T14:39:31.302Z,9.03
2018-08-08T14:42:00.622Z,8.25
2018-08-08T14:44:29.186Z,9.23
2018-08-08T14:46:57.722Z,8.95
2018-08-08T14:49:26.209Z,8.68
2018-08-08T14:51:54.803Z,8.70
2018-08-08T14:54:23.354Z,9.00
2018-08-08T14:56:51.895Z,8.95
2018-08-08T14:59:20.442Z,9.18
2018-08-08T15:01:48.934Z,9.10
2018-08-08T15:04:17.458Z,9.13
2018-08-08T15:06:46.287Z,9.38
2018-08-08T15:09:15.513Z,9.00
2018-08-08T15:11:44.060Z,9.85
2018-08-08T15:14:12.624Z,9.68
2018-08-08T15:16:41.784Z,10.58
2018-08-08T15:19:10.681Z,10.25
2018-08-08T15:21:39.243Z,10.80
2018-08-08T15:24:07.941Z,11.28
2018-08-08T15:26:36.441Z,10.48
2018-08-08T15:29:05.108Z,9.73
2018-08-08T15:31:34.833Z,10.32
2018-08-08T15:34:03.384Z,10.72
2018-08-08T15:36:32.009Z,11.50
2018-08-08T15:39:00.483Z,11.28
2018-08-08T15:41:29.007Z,11.00
2018-08-08T15:43:57.543Z,10.58
2018-08-08T15:46:26.101Z,10.25
2018-08-08T15:48:54.831Z,10.13
2018-08-08T15:51:23.415Z,9.70
2018-08-08T15:53:51.989Z,9.33
2018-08-08T15:56:20.523Z,10.13
2018-08-08T15:58:49.143Z,10.40
2018-08-08T16:01:17.635Z,9.18
2018-08-08T16:03:46.181Z,8.88
2018-08-08T16:06:14.773Z,9.43
2018-08-08T16:08:43.285Z,8.98
2018-08-08T16:11:11.863Z,9.15
2018-08-08T16:13:40.446Z,9.03
2018-08-08T16:16:08.949Z,8.70
2018-08-08T16:18:37.475Z,8.60
2018-08-08T16:21:05.999Z,8.60
2018-08-08T16:23:34.545Z,9.50
2018-08-08T16:26:03.051Z,8.85
2018-08-08T16:28:31.589Z,9.05
2018-08-08T16:31:00.185Z,7.83
2018-08-08T16:33:28.691Z,9.00
2018-08-08T16:35:57.257Z,7.87
2018-08-08T16:38:25.775Z,8.50
2018-08-08T16:40:54.293Z,8.13
2018-08-08T16:43:22.862Z,7.78
2018-08-08T16:45:51.424Z,7.85
2018-08-08T16:48:19.915Z,8.65
2018-08-08T16:50:48.424Z,7.72
2018-08-08T16:53:16.911Z,8.30
2018-08-08T16:55:45.412Z,7.70
2018-08-08T16:58:13.915Z,7.87
2018-08-08T17:00:42.401Z,7.47
2018-08-08T17:03:10.851Z,7.60
2018-08-08T17:05:39.393Z,7.25
2018-08-08T17:08:07.975Z,7.22
2018-08-08T17:10:36.389Z,7.60
2018-08-08T17:13:04.878Z,7.47
2018-08-08T17:15:33.365Z,7.28
2018-08-08T17:18:01.864Z,7.00
2018-08-08T17:20:30.446Z,6.90
2018-08-08T17:22:58.896Z,7.20
2018-08-08T17:25:27.639Z,7.40
2018-08-08T17:27:56.167Z,7.20
2018-08-08T17:30:24.698Z,7.40
2018-08-08T17:32:53.222Z,7.40
2018-08-08T17:35:21.786Z,7.33
2018-08-08T17:37:50.341Z,8.15
2018-08-08T17:40:19.104Z,7.83
2018-08-08T17:42:47.873Z,8.20
2018-08-08T17:45:16.473Z,8.25
2018-08-08T17:47:45.080Z,8.03
2018-08-08T17:50:13.828Z,7.62
2018-08-08T17:52:42.818Z,8.48
2018-08-08T17:55:11.432Z,8.18
2018-08-08T17:57:40.049Z,8.48
2018-08-08T18:00:08.562Z,8.88
2018-08-08T18:02:37.564Z,8.78
2018-08-08T18:05:06.156Z,8.63
2018-08-08T18:07:34.672Z,9.03
2018-08-08T18:10:03.218Z,8.38
2018-08-08T18:12:31.762Z,8.38
2018-08-08T18:15:00.297Z,8.63
2018-08-08T18:17:28.801Z,7.90
2018-08-08T18:19:57.374Z,8.50
2018-08-08T18:22:25.837Z,8.57
2018-08-08T18:24:54.296Z,8.70
2018-08-08T18:27:22.825Z,7.93
2018-08-08T18:29:51.310Z,7.47
2018-08-08T18:32:19.824Z,8.43
2018-08-08T18:34:48.323Z,8.93
2018-08-08T18:37:16.890Z,8.40
2018-08-08T18:39:45.366Z,8.43
2018-08-08T18:42:13.868Z,8.47
2018-08-08T18:44:42.380Z,9.07
2018-08-08T18:47:10.862Z,8.20
2018-08-08T18:49:39.415Z,8.17
2018-08-08T18:52:08.082Z,8.70
2018-08-08T18:54:36.594Z,8.50
2018-08-08T18:57:05.166Z,8.57
2018-08-08T18:59:33.736Z,7.80
2018-08-08T19:02:02.160Z,8.30
2018-08-08T19:04:30.626Z,8.70
2018-08-08T19:06:59.106Z,9.20
2018-08-08T19:09:27.656Z,8.60
2018-08-08T19:11:56.134Z,8.80
2018-08-08T19:14:24.620Z,8.63
2018-08-08T19:16:53.146Z,8.27
2018-08-08T19:19:21.650Z,8.27
2018-08-08T19:21:50.174Z,8.33
2018-08-08T19:24:18.664Z,8.63
2018-08-08T19:26:47.180Z,8.50
2018-08-08T19:29:15.661Z,8.83
2018-08-08T19:31:44.142Z,9.23
2018-08-08T19:34:12.687Z,8.47
2018-08-08T19:36:41.150Z,8.43
2018-08-08T19:39:10.780Z,9.20
2018-08-08T19:41:39.362Z,9.13
2018-08-08T19:44:08.189Z,8.77
2018-08-08T19:46:37.235Z,8.40
2018-08-08T19:49:05.881Z,8.37
2018-08-08T19:51:34.481Z,8.27
2018-08-08T19:54:02.898Z,8.83
2018-08-08T19:56:31.450Z,9.07
2018-08-08T19:58:59.932Z,8.63
2018-08-08T20:01:28.422Z,8.43
2018-08-08T20:03:56.930Z,9.00
2018-08-08T20:06:25.409Z,8.63
2018-08-08T20:08:53.992Z,8.33
2018-08-08T20:11:22.464Z,8.10
2018-08-08T20:13:50.966Z,7.83
2018-08-08T20:16:19.451Z,7.90
2018-08-08T20:18:48.003Z,8.17
2018-08-08T20:21:16.474Z,7.83
2018-08-08T20:23:44.957Z,8.10
2018-08-08T20:26:13.490Z,8.17
2018-08-08T20:28:41.967Z,7.90
2018-08-08T20:31:10.442Z,7.93
2018-08-08T20:33:38.942Z,7.37
2018-08-08T20:36:07.429Z,8.00
2018-08-08T20:38:35.931Z,7.93
2018-08-08T20:41:04.471Z,8.10
2018-08-08T20:43:32.948Z,7.73
2018-08-08T20:46:01.433Z,7.80
2018-08-08T20:48:29.935Z,7.57
2018-08-08T20:50:58.418Z,7.63
2018-08-08T20:53:26.893Z,8.30
2018-08-08T20:55:55.432Z,7.50
2018-08-08T20:58:23.972Z,7.80
2018-08-08T21:00:52.449Z,7.27
2018-08-08T21:03:20.935Z,7.73
2018-08-08T21:05:49.503Z,7.03
2018-08-08T21:08:18.007Z,8.00
2018-08-08T21:10:46.511Z,7.80
2018-08-08T21:13:15.047Z,8.20
2018-08-08T21:15:43.585Z,8.00
2018-08-08T21:18:12.143Z,8.00
2018-08-08T21:20:40.647Z,7.70
2018-08-08T21:23:09.184Z,7.97
2018-08-08T21:25:37.669Z,8.10
2018-08-08T21:52:27.535Z,8.67
2018-08-08T21:55:07.256Z,8.17
2018-08-08T21:57:47.065Z,8.17
2018-08-08T22:01:26.019Z,8.27
2018-08-08T22:04:05.674Z,8.50
2018-08-08T22:06:45.374Z,8.90
2018-08-08T22:09:25.133Z,8.50
2018-08-08T22:12:09.772Z,8.13
2018-08-08T22:15:06.446Z,7.83
2018-08-08T22:17:46.173Z,8.03
2018-08-08T22:20:14.791Z,8.30
2018-08-08T22:22:43.412Z,8.57
2018-08-08T22:25:11.920Z,9.00
2018-08-08T22:27:40.519Z,8.53
2018-08-08T22:30:09.087Z,8.63
2018-08-08T22:32:37.627Z,8.07
2018-08-08T22:35:06.714Z,8.27
2018-08-08T22:37:35.295Z,8.47
2018-08-08T22:40:03.902Z,8.83
2018-08-08T22:42:32.424Z,9.37
2018-08-08T22:45:00.922Z,8.53
2018-08-08T22:47:29.440Z,10.17
2018-08-08T22:49:57.919Z,9.93
2018-08-08T22:52:26.418Z,9.30
2018-08-08T22:54:54.920Z,9.60
2018-08-08T22:57:23.472Z,8.83
2018-08-08T22:59:51.985Z,9.40
2018-08-08T23:02:20.630Z,8.77
2018-08-08T23:04:49.162Z,9.53
2018-08-08T23:07:17.738Z,9.53
2018-08-08T23:09:46.206Z,9.17
2018-08-08T23:12:14.783Z,9.37
2018-08-08T23:14:43.288Z,9.00
2018-08-08T23:17:11.845Z,8.97
2018-08-08T23:19:40.316Z,9.30
2018-08-08T23:22:08.818Z,9.37
2018-08-08T23:24:38.260Z,9.03
2018-08-08T23:27:06.786Z,9.50
2018-08-08T23:29:35.366Z,9.63
2018-08-08T23:32:03.908Z,9.33
2018-08-08T23:34:32.440Z,8.80
2018-08-08T23:37:00.996Z,9.43
2018-08-08T23:39:29.517Z,9.87
2018-08-08T23:41:58.063Z,9.17
2018-08-08T23:44:26.580Z,8.93
2018-08-08T23:46:55.103Z,9.07
2018-08-08T23:49:23.606Z,9.50
2018-08-08T23:51:52.126Z,9.77
2018-08-08T23:54:20.652Z,9.27
2018-08-08T23:56:49.207Z,9.33
2018-08-08T23:59:17.760Z,9.27
